createdAt,value
2023-05-23T00:00:10.106Z,88.37
2023-05-23T00:01:10.105Z,88.37
2023-05-23T00:02:10.110Z,88.27
2023-05-23T00:03:10.244Z,88.78
2023-05-23T00:04:10.084Z,88.78
2023-05-23T00:05:10.036Z,88.57
2023-05-23T00:06:10.036Z,88.48
2023-05-23T00:07:10.025Z,88.48
2023-05-23T00:08:10.008Z,88.48
2023-05-23T00:09:10.109Z,88.27
2023-05-23T00:10:09.990Z,88.78
2023-05-23T00:11:09.980Z,88.48
2023-05-23T00:12:09.956Z,88.78
2023-05-23T00:13:09.940Z,88.98
2023-05-23T00:14:09.934Z,88.98
2023-05-23T00:15:09.946Z,88.88
2023-05-23T00:16:09.929Z,88.57
2023-05-23T00:17:09.958Z,88.98
2023-05-23T00:18:09.889Z,89.28
2023-05-23T00:19:09.977Z,89.08
2023-05-23T00:20:09.867Z,89.28
2023-05-23T00:21:09.856Z,89.59
2023-05-23T00:22:09.860Z,89.28
2023-05-23T00:23:09.847Z,89.18
2023-05-23T00:24:09.825Z,89.18
2023-05-23T00:25:09.940Z,88.57
2023-05-23T00:26:09.797Z,88.37
2023-05-23T00:27:09.793Z,88.48
2023-05-23T00:28:09.809Z,88.37
2023-05-23T00:29:09.760Z,88.37
2023-05-23T00:30:09.757Z,88.57
2023-05-23T00:31:09.827Z,88.37
2023-05-23T00:32:09.733Z,88.98
2023-05-23T00:33:09.744Z,89.39
2023-05-23T00:34:09.709Z,89.18
2023-05-23T00:35:09.708Z,89.69
2023-05-23T00:36:09.688Z,89.28
2023-05-23T00:37:09.675Z,89.28
2023-05-23T00:38:09.662Z,89.48
2023-05-23T00:39:09.656Z,89.69
2023-05-23T00:40:09.686Z,89.59
2023-05-23T00:41:09.766Z,89.69
2023-05-23T00:42:09.632Z,89.79
2023-05-23T00:43:09.649Z,89.28
2023-05-23T00:44:09.604Z,89.99
2023-05-23T00:45:09.610Z,89.99
2023-05-23T00:46:09.596Z,89.79
2023-05-23T00:47:09.564Z,90.40
2023-05-23T00:48:09.552Z,90.70
2023-05-23T00:49:09.540Z,90.40
2023-05-23T00:50:09.536Z,91.05
2023-05-23T00:51:09.529Z,91.11
2023-05-23T00:52:09.519Z,90.80
2023-05-23T00:53:09.504Z,91.00
2023-05-23T00:54:09.482Z,90.70
2023-05-23T00:55:09.471Z,90.95
2023-05-23T00:56:09.514Z,91.11
2023-05-23T00:57:09.565Z,90.95
2023-05-23T00:58:09.446Z,91.00
2023-05-23T00:59:09.417Z,90.64
2023-05-23T01:00:09.419Z,90.64
2023-05-23T01:01:09.412Z,91.05
2023-05-23T01:02:09.415Z,91.35
2023-05-23T01:03:09.446Z,91.46
2023-05-23T01:04:09.522Z,91.05
2023-05-23T01:05:09.358Z,91.75
2023-05-23T01:06:09.362Z,91.66
2023-05-23T01:07:09.360Z,91.35
2023-05-23T01:08:09.318Z,91.35
2023-05-23T01:09:09.304Z,91.31
2023-05-23T01:10:09.296Z,91.35
2023-05-23T01:11:09.315Z,91.66
2023-05-23T01:12:09.284Z,91.66
2023-05-23T01:13:09.372Z,91.46
2023-05-23T01:14:09.252Z,91.51
2023-05-23T01:15:09.238Z,91.66
2023-05-23T01:16:09.249Z,91.66
2023-05-23T01:17:09.222Z,91.66
2023-05-23T01:18:09.239Z,91.55
2023-05-23T01:19:09.211Z,91.55
2023-05-23T01:20:09.204Z,91.55
2023-05-23T01:21:09.168Z,91.86
2023-05-23T01:22:09.174Z,91.35
2023-05-23T01:23:09.145Z,91.66
2023-05-23T01:24:09.134Z,91.46
2023-05-23T01:25:09.119Z,91.66
2023-05-23T01:26:09.119Z,91.51
2023-05-23T01:27:09.111Z,91.86
2023-05-23T01:28:09.090Z,91.75
2023-05-23T01:29:09.193Z,91.46
2023-05-23T01:30:09.061Z,91.86
2023-05-23T01:31:09.051Z,92.61
2023-05-23T01:32:09.082Z,92.57
2023-05-23T01:33:09.070Z,93.02
2023-05-23T01:34:09.016Z,92.91
2023-05-23T01:35:08.999Z,92.82
2023-05-23T01:36:08.999Z,93.42
2023-05-23T01:37:08.986Z,93.27
2023-05-23T01:38:09.014Z,93.32
2023-05-23T01:39:08.958Z,92.97
2023-05-23T01:40:08.950Z,93.12
2023-05-23T01:41:08.950Z,93.07
2023-05-23T01:42:08.929Z,93.52
2023-05-23T01:43:08.953Z,93.32
2023-05-23T01:44:08.912Z,93.73
2023-05-23T01:45:09.013Z,94.43
2023-05-23T01:46:08.976Z,93.42
2023-05-23T01:47:08.890Z,93.62
2023-05-23T01:48:08.937Z,93.22
2023-05-23T01:49:08.904Z,93.73
2023-05-23T01:50:08.839Z,93.22
2023-05-23T01:51:08.822Z,94.29
2023-05-23T01:52:08.814Z,93.93
2023-05-23T01:53:08.819Z,93.83
2023-05-23T01:54:08.791Z,93.12
2023-05-23T01:55:08.798Z,93.22
2023-05-23T01:56:08.765Z,93.73
2023-05-23T01:57:08.753Z,93.93
2023-05-23T01:58:08.770Z,93.93
2023-05-23T01:59:08.736Z,94.34
2023-05-23T02:00:08.728Z,93.42
2023-05-23T02:01:08.873Z,93.73
2023-05-23T02:02:08.747Z,93.52
2023-05-23T02:03:08.802Z,93.32
2023-05-23T02:04:08.676Z,93.62
2023-05-23T02:05:08.683Z,93.42
2023-05-23T02:06:08.664Z,93.62
2023-05-23T02:07:08.644Z,93.52
2023-05-23T02:08:08.637Z,93.62
2023-05-23T02:09:08.637Z,93.52
2023-05-23T02:10:08.614Z,94.03
2023-05-23T02:11:08.601Z,94.13
2023-05-23T02:12:08.596Z,94.43
2023-05-23T02:13:08.578Z,94.23
2023-05-23T02:14:08.572Z,94.18
2023-05-23T02:15:08.576Z,94.27
2023-05-23T02:16:08.547Z,94.48
2023-05-23T02:17:08.750Z,94.48
2023-05-23T02:18:08.596Z,94.68
2023-05-23T02:19:08.720Z,94.78
2023-05-23T02:20:08.532Z,94.78
2023-05-23T02:21:08.518Z,94.98
2023-05-23T02:22:08.475Z,95.29
2023-05-23T02:23:08.462Z,95.39
2023-05-23T02:24:08.482Z,95.09
2023-05-23T02:25:08.467Z,95.09
2023-05-23T02:26:08.445Z,94.89
2023-05-23T02:27:08.424Z,95.09
2023-05-23T02:28:08.406Z,95.09
2023-05-23T02:29:08.398Z,94.78
2023-05-23T02:30:08.399Z,94.89
2023-05-23T02:31:08.441Z,95.09
2023-05-23T02:32:08.376Z,95.09
2023-05-23T02:33:08.507Z,95.50
2023-05-23T02:34:08.347Z,95.39
2023-05-23T02:35:08.332Z,95.59
2023-05-23T02:36:08.323Z,95.19
2023-05-23T02:37:08.323Z,95.29
2023-05-23T02:38:08.299Z,95.50
2023-05-23T02:39:08.294Z,95.90
2023-05-23T02:40:08.286Z,96.20
2023-05-23T02:41:08.258Z,96.10
2023-05-23T02:42:08.249Z,96.10
2023-05-23T02:43:08.236Z,96.41
2023-05-23T02:44:08.236Z,96.00
2023-05-23T02:45:08.225Z,95.79
2023-05-23T02:46:08.280Z,96.30
2023-05-23T02:47:08.198Z,96.35
2023-05-23T02:48:08.303Z,96.35
2023-05-23T02:49:08.316Z,96.35
2023-05-23T02:50:08.165Z,96.04
2023-05-23T02:51:08.156Z,96.04
2023-05-23T02:52:08.151Z,95.54
2023-05-23T02:53:08.116Z,95.90
2023-05-23T02:54:08.111Z,96.04
2023-05-23T02:55:08.097Z,95.54
2023-05-23T02:56:08.113Z,96.61
2023-05-23T02:57:08.128Z,96.20
2023-05-23T02:58:08.063Z,96.15
2023-05-23T02:59:08.047Z,96.15
2023-05-23T03:00:08.043Z,96.55
2023-05-23T03:01:08.362Z,96.60
2023-05-23T03:02:08.130Z,95.84
2023-05-23T03:03:08.128Z,96.25
2023-05-23T03:04:08.051Z,95.89
2023-05-23T03:05:08.096Z,96.04
2023-05-23T03:06:07.963Z,95.74
2023-05-23T03:08:07.952Z,96.30
2023-05-23T03:09:07.934Z,96.04
2023-05-23T03:10:07.927Z,95.64
2023-05-23T03:11:07.905Z,95.43
2023-05-23T03:12:07.894Z,95.38
2023-05-23T03:13:07.886Z,95.58
2023-05-23T03:14:07.900Z,96.50
2023-05-23T03:15:07.884Z,96.35
2023-05-23T03:16:07.885Z,95.89
2023-05-23T03:17:07.872Z,95.79
2023-05-23T03:18:07.862Z,95.74
2023-05-23T03:19:07.832Z,96.19
2023-05-23T03:20:07.810Z,95.79
2023-05-23T03:21:07.942Z,96.39
2023-05-23T03:22:07.789Z,95.58
2023-05-23T03:23:07.783Z,95.58
2023-05-23T03:24:07.762Z,95.68
2023-05-23T03:25:07.772Z,96.19
2023-05-23T03:26:07.762Z,96.39
2023-05-23T03:27:07.733Z,95.89
2023-05-23T03:28:07.715Z,96.44
2023-05-23T03:29:07.710Z,96.19
2023-05-23T03:30:07.697Z,96.09
2023-05-23T03:31:07.699Z,96.09
2023-05-23T03:32:07.730Z,95.89
2023-05-23T03:33:07.802Z,95.89
2023-05-23T03:34:07.660Z,95.89
2023-05-23T03:35:07.666Z,95.58
2023-05-23T03:36:07.641Z,95.58
2023-05-23T03:37:07.737Z,96.19
2023-05-23T03:38:07.617Z,95.89
2023-05-23T03:39:07.593Z,95.89
2023-05-23T03:40:07.584Z,96.19
2023-05-23T03:41:07.582Z,95.89
2023-05-23T03:42:07.559Z,95.99
2023-05-23T03:43:07.549Z,95.79
2023-05-23T03:44:07.536Z,96.19
2023-05-23T03:45:07.523Z,95.58
2023-05-23T03:46:07.588Z,96.60
2023-05-23T03:47:07.513Z,96.39
2023-05-23T03:48:07.536Z,96.30
2023-05-23T03:49:07.474Z,96.30
2023-05-23T03:50:07.462Z,96.19
2023-05-23T03:51:07.473Z,96.19
2023-05-23T03:52:07.453Z,96.39
2023-05-23T03:53:07.561Z,96.39
2023-05-23T03:54:07.430Z,95.89
2023-05-23T03:55:07.425Z,96.14
2023-05-23T03:56:07.426Z,95.99
2023-05-23T03:57:07.396Z,96.84
2023-05-23T03:58:07.375Z,96.23
2023-05-23T03:59:07.356Z,95.63
2023-05-23T04:00:07.349Z,95.73
2023-05-23T04:01:07.344Z,96.03
2023-05-23T04:02:07.394Z,96.23
2023-05-23T04:03:07.520Z,96.14
2023-05-23T04:04:07.341Z,96.34
2023-05-23T04:05:07.295Z,96.60
2023-05-23T04:06:07.281Z,96.23
2023-05-23T04:07:07.265Z,95.68
2023-05-23T04:08:07.283Z,96.23
2023-05-23T04:09:07.403Z,96.80
2023-05-23T04:10:07.256Z,96.39
2023-05-23T04:11:07.216Z,95.68
2023-05-23T04:12:07.209Z,96.39
2023-05-23T04:13:07.231Z,96.19
2023-05-23T04:14:07.192Z,95.79
2023-05-23T04:15:07.177Z,95.99
2023-05-23T04:16:07.217Z,96.34
2023-05-23T04:17:07.154Z,95.83
2023-05-23T04:18:07.190Z,95.42
2023-05-23T04:19:07.172Z,96.54
2023-05-23T04:20:07.144Z,96.14
2023-05-23T04:21:07.132Z,96.34
2023-05-23T04:22:07.122Z,96.34
2023-05-23T04:23:07.124Z,96.14
2023-05-23T04:24:07.111Z,96.34
2023-05-23T04:25:07.193Z,96.18
2023-05-23T04:26:07.065Z,96.28
2023-05-23T04:27:07.089Z,96.23
2023-05-23T04:28:07.045Z,96.18
2023-05-23T04:29:07.043Z,96.23
2023-05-23T04:30:07.029Z,96.23
2023-05-23T04:31:07.065Z,96.34
2023-05-23T04:32:07.004Z,96.14
2023-05-23T04:33:07.026Z,95.67
2023-05-23T04:34:06.968Z,95.22
2023-05-23T04:35:06.957Z,95.32
2023-05-23T04:36:06.943Z,95.42
2023-05-23T04:37:06.963Z,95.53
2023-05-23T04:38:06.926Z,95.17
2023-05-23T04:39:06.924Z,95.47
2023-05-23T04:40:06.902Z,95.57
2023-05-23T04:41:07.037Z,95.26
2023-05-23T04:42:06.896Z,95.06
2023-05-23T04:43:06.872Z,95.26
2023-05-23T04:44:06.877Z,95.17
2023-05-23T04:45:06.856Z,95.57
2023-05-23T04:46:06.840Z,95.67
2023-05-23T04:47:06.848Z,95.67
2023-05-23T04:48:06.860Z,95.26
2023-05-23T04:49:06.855Z,95.22
2023-05-23T04:50:06.793Z,95.42
2023-05-23T04:51:06.783Z,95.22
2023-05-23T04:52:06.766Z,95.37
2023-05-23T04:53:06.783Z,94.86
2023-05-23T04:54:06.761Z,94.86
2023-05-23T04:55:06.756Z,95.06
2023-05-23T04:56:06.725Z,94.96
2023-05-23T04:57:06.861Z,95.06
2023-05-23T04:58:06.701Z,94.66
2023-05-23T04:59:06.707Z,94.35
2023-05-23T05:00:06.704Z,94.66
2023-05-23T05:01:06.717Z,94.61
2023-05-23T05:02:06.653Z,94.15
2023-05-23T05:03:06.704Z,94.15
2023-05-23T05:04:06.689Z,94.51
2023-05-23T05:05:06.654Z,94.45
2023-05-23T05:06:06.606Z,94.51
2023-05-23T05:07:06.630Z,94.71
2023-05-23T05:08:06.585Z,95.02
2023-05-23T05:09:06.606Z,94.92
2023-05-23T05:10:06.566Z,95.47
2023-05-23T05:11:06.563Z,95.17
2023-05-23T05:12:06.542Z,95.06
2023-05-23T05:13:06.674Z,95.47
2023-05-23T05:14:06.521Z,95.26
2023-05-23T05:15:06.517Z,96.28
2023-05-23T05:16:06.526Z,95.78
2023-05-23T05:17:06.515Z,95.92
2023-05-23T05:18:06.515Z,96.12
2023-05-23T05:19:06.505Z,96.33
2023-05-23T05:20:06.446Z,96.33
2023-05-23T05:21:06.527Z,96.02
2023-05-23T05:22:06.447Z,96.33
2023-05-23T05:23:06.422Z,96.02
2023-05-23T05:24:06.405Z,96.33
2023-05-23T05:25:06.419Z,97.14
2023-05-23T05:26:06.408Z,96.33
2023-05-23T05:27:06.413Z,96.33
2023-05-23T05:28:06.384Z,96.47
2023-05-23T05:29:06.474Z,96.07
2023-05-23T05:30:06.336Z,96.47
2023-05-23T05:31:06.369Z,97.29
2023-05-23T05:32:06.322Z,97.08
2023-05-23T05:33:06.708Z,96.83
2023-05-23T05:34:06.295Z,96.68
2023-05-23T05:35:06.299Z,97.19
2023-05-23T05:36:06.271Z,96.78
2023-05-23T05:37:06.285Z,96.78
2023-05-23T05:38:06.245Z,96.47
2023-05-23T05:39:06.255Z,96.58
2023-05-23T05:40:06.251Z,96.62
2023-05-23T05:41:08.203Z,97.03
2023-05-23T05:42:06.259Z,96.92
2023-05-23T05:43:06.198Z,97.03
2023-05-23T05:44:06.205Z,97.64
2023-05-23T05:45:06.286Z,97.44
2023-05-23T05:46:06.212Z,97.84
2023-05-23T05:47:06.164Z,97.53
2023-05-23T05:48:06.233Z,98.05
2023-05-23T05:49:06.137Z,97.84
2023-05-23T05:50:06.124Z,98.05
2023-05-23T05:51:06.126Z,97.84
2023-05-23T05:52:06.101Z,98.05
2023-05-23T05:53:06.084Z,98.25
2023-05-23T05:54:06.070Z,98.35
2023-05-23T05:55:06.075Z,98.35
2023-05-23T05:56:06.068Z,97.84
2023-05-23T05:57:06.052Z,98.25
2023-05-23T05:58:06.021Z,98.14
2023-05-23T05:59:06.022Z,97.64
2023-05-23T06:00:06.017Z,97.74
2023-05-23T06:01:06.146Z,97.44
2023-05-23T06:02:05.997Z,97.64
2023-05-23T06:03:06.063Z,97.48
2023-05-23T06:04:06.085Z,97.48
2023-05-23T06:05:05.966Z,97.33
2023-05-23T06:06:05.942Z,97.33
2023-05-23T06:07:05.930Z,97.44
2023-05-23T06:08:05.932Z,97.64
2023-05-23T06:09:05.902Z,97.33
2023-05-23T06:10:05.904Z,97.44
2023-05-23T06:11:05.882Z,96.92
2023-05-23T06:12:05.869Z,96.92
2023-05-23T06:13:05.871Z,97.28
2023-05-23T06:14:05.875Z,97.64
2023-05-23T06:15:05.839Z,97.74
2023-05-23T06:16:05.863Z,97.53
2023-05-23T06:17:05.937Z,97.44
2023-05-23T06:18:05.899Z,97.64
2023-05-23T06:19:05.846Z,97.19
2023-05-23T06:20:05.787Z,97.94
2023-05-23T06:21:05.780Z,97.29
2023-05-23T06:22:05.758Z,97.94
2023-05-23T06:23:05.794Z,97.84
2023-05-23T06:24:05.741Z,97.60
2023-05-23T06:25:05.744Z,97.64
2023-05-23T06:26:05.718Z,97.84
2023-05-23T06:27:05.726Z,97.29
2023-05-23T06:28:05.691Z,97.74
2023-05-23T06:29:05.689Z,97.64
2023-05-23T06:30:05.688Z,97.13
2023-05-23T06:31:05.669Z,97.53
2023-05-23T06:32:05.717Z,97.03
2023-05-23T06:33:05.803Z,96.92
2023-05-23T06:34:05.637Z,97.23
2023-05-23T06:35:05.611Z,97.13
2023-05-23T06:36:05.699Z,96.52
2023-05-23T06:37:05.609Z,96.56
2023-05-23T06:38:05.574Z,97.03
2023-05-23T06:39:05.589Z,96.87
2023-05-23T06:40:05.564Z,96.67
2023-05-23T06:41:05.547Z,96.83
2023-05-23T06:42:05.556Z,96.77
2023-05-23T06:43:05.521Z,96.87
2023-05-23T06:44:05.520Z,96.46
2023-05-23T06:45:05.497Z,97.07
2023-05-23T06:46:05.601Z,97.28
2023-05-23T06:47:05.509Z,96.83
2023-05-23T06:48:05.520Z,96.67
2023-05-23T06:49:14.234Z,97.13
2023-05-23T06:50:06.444Z,96.83
2023-05-23T06:51:05.499Z,96.62
2023-05-23T06:52:05.413Z,97.03
2023-05-23T06:53:05.434Z,96.92
2023-05-23T06:54:05.407Z,97.13
2023-05-23T06:55:05.397Z,97.13
2023-05-23T06:56:05.370Z,96.92
2023-05-23T06:57:05.383Z,96.62
2023-05-23T06:58:05.342Z,96.42
2023-05-23T06:59:05.346Z,95.86
2023-05-23T07:00:05.327Z,96.31
2023-05-23T07:01:05.370Z,96.62
2023-05-23T07:02:05.303Z,96.01
2023-05-23T07:03:05.336Z,96.42
2023-05-23T07:04:05.282Z,95.81
2023-05-23T07:05:05.520Z,96.58
2023-05-23T07:06:05.268Z,96.27
2023-05-23T07:07:05.251Z,96.37
2023-05-23T07:08:05.256Z,95.81
2023-05-23T07:09:05.251Z,95.56
2023-05-23T07:10:05.209Z,95.40
2023-05-23T07:11:05.201Z,95.61
2023-05-23T07:12:05.192Z,95.09
2023-05-23T07:13:05.186Z,95.14
2023-05-23T07:14:05.211Z,95.04
2023-05-23T07:15:05.161Z,95.75
2023-05-23T07:16:05.152Z,95.40
2023-05-23T07:17:05.178Z,95.45
2023-05-23T07:18:05.156Z,95.50
2023-05-23T07:19:05.212Z,95.30
2023-05-23T07:20:05.128Z,95.30
2023-05-23T07:21:05.309Z,95.20
2023-05-23T07:22:05.089Z,95.14
2023-05-23T07:23:05.065Z,95.04
2023-05-23T07:24:05.051Z,94.84
2023-05-23T07:25:05.044Z,94.93
2023-05-23T07:26:05.073Z,95.34
2023-05-23T07:27:05.033Z,95.34
2023-05-23T07:28:05.010Z,95.34
2023-05-23T07:29:05.005Z,95.20
2023-05-23T07:30:04.981Z,94.63
2023-05-23T07:31:05.029Z,94.73
2023-05-23T07:32:04.981Z,94.48
2023-05-23T07:33:05.045Z,94.73
2023-05-23T07:34:04.937Z,94.73
2023-05-23T07:35:04.934Z,94.69
2023-05-23T07:36:04.941Z,94.48
2023-05-23T07:37:04.936Z,94.73
2023-05-23T07:38:05.304Z,94.84
2023-05-23T07:39:04.892Z,94.84
2023-05-23T07:40:04.949Z,94.53
2023-05-23T07:41:11.536Z,94.73
2023-05-23T07:42:05.849Z,94.32
2023-05-23T07:43:04.846Z,94.73
2023-05-23T07:44:04.858Z,94.78
2023-05-23T07:45:04.830Z,94.84
2023-05-23T07:46:04.894Z,95.04
2023-05-23T07:47:04.945Z,95.14
2023-05-23T07:48:04.841Z,95.14
2023-05-23T07:49:04.768Z,95.14
2023-05-23T07:50:04.781Z,95.49
2023-05-23T07:51:04.758Z,95.39
2023-05-23T07:52:04.767Z,95.14
2023-05-23T07:53:04.748Z,95.65
2023-05-23T07:54:04.751Z,95.24
2023-05-23T07:55:04.736Z,95.04
2023-05-23T07:56:04.697Z,94.32
2023-05-23T07:57:04.686Z,94.88
2023-05-23T07:58:04.741Z,95.04
2023-05-23T07:59:04.671Z,94.78
2023-05-23T08:00:04.650Z,94.32
2023-05-23T08:01:04.640Z,94.17
2023-05-23T08:02:04.683Z,93.76
2023-05-23T08:03:04.641Z,93.96
2023-05-23T08:04:04.657Z,94.63
2023-05-23T08:05:04.586Z,94.17
2023-05-23T08:06:04.583Z,93.55
2023-05-23T08:07:06.072Z,93.45
2023-05-23T08:08:04.596Z,93.45
2023-05-23T08:09:04.572Z,93.45
2023-05-23T08:10:04.544Z,93.35
2023-05-23T08:11:04.525Z,93.66
2023-05-23T08:12:04.537Z,93.15
2023-05-23T08:13:04.509Z,92.84
2023-05-23T08:14:04.508Z,93.15
2023-05-23T08:15:04.485Z,93.35
2023-05-23T08:16:04.508Z,93.35
2023-05-23T08:17:04.575Z,93.15
2023-05-23T08:18:04.651Z,92.84
2023-05-23T08:19:04.446Z,93.09
2023-05-23T08:20:04.454Z,92.74
2023-05-23T08:21:04.418Z,92.48
2023-05-23T08:22:04.401Z,92.38
2023-05-23T08:23:04.391Z,92.79
2023-05-23T08:24:04.384Z,92.99
2023-05-23T08:25:04.406Z,93.29
2023-05-23T08:26:04.384Z,92.99
2023-05-23T08:27:04.347Z,93.40
2023-05-23T08:28:04.419Z,93.19
2023-05-23T08:29:04.328Z,92.99
2023-05-23T08:30:04.319Z,93.25
2023-05-23T08:31:04.316Z,93.09
2023-05-23T08:32:04.342Z,93.19
2023-05-23T08:33:04.315Z,93.09
2023-05-23T08:34:04.298Z,93.25
2023-05-23T08:35:04.264Z,93.15
2023-05-23T08:36:04.268Z,92.54
2023-05-23T08:37:04.238Z,92.13
2023-05-23T08:38:04.286Z,92.27
2023-05-23T08:39:04.213Z,91.62
2023-05-23T08:40:04.221Z,91.52
2023-05-23T08:41:04.433Z,91.31
2023-05-23T08:42:04.217Z,91.31
2023-05-23T08:43:04.215Z,91.72
2023-05-23T08:44:04.318Z,91.16
2023-05-23T08:45:04.143Z,91.05
2023-05-23T08:46:04.213Z,91.31
2023-05-23T08:47:04.122Z,91.22
2023-05-23T08:48:04.387Z,90.81
2023-05-23T08:49:04.104Z,91.01
2023-05-23T08:50:04.114Z,90.81
2023-05-23T08:51:04.112Z,90.91
2023-05-23T08:52:04.073Z,90.81
2023-05-23T08:53:04.132Z,90.09
2023-05-23T08:54:04.072Z,89.79
2023-05-23T08:55:05.733Z,89.69
2023-05-23T08:56:04.033Z,89.79
2023-05-23T08:57:04.029Z,89.99
2023-05-23T08:58:04.049Z,89.85
2023-05-23T08:59:04.011Z,89.44
2023-05-23T09:00:06.251Z,89.34
2023-05-23T09:01:04.066Z,89.81
2023-05-23T09:02:03.981Z,89.00
2023-05-23T09:03:04.023Z,89.50
2023-05-23T09:04:04.048Z,88.54
2023-05-23T09:05:03.926Z,88.13
2023-05-23T09:06:03.984Z,88.13
2023-05-23T09:07:03.916Z,88.04
2023-05-23T09:08:03.893Z,87.84
2023-05-23T09:09:03.876Z,87.23
2023-05-23T09:10:03.875Z,86.92
2023-05-23T09:11:03.859Z,87.99
2023-05-23T09:12:03.854Z,87.79
2023-05-23T09:13:03.853Z,87.29
2023-05-23T09:14:03.832Z,87.29
2023-05-23T09:15:03.841Z,87.08
2023-05-23T09:16:03.856Z,87.29
2023-05-23T09:17:04.713Z,86.57
2023-05-23T09:18:03.832Z,86.37
2023-05-23T09:19:03.775Z,85.46
2023-05-23T09:20:03.763Z,84.17
2023-05-23T09:21:03.747Z,84.38
2023-05-23T09:22:03.739Z,84.78
2023-05-23T09:23:03.905Z,85.09
2023-05-23T09:24:03.705Z,84.88
2023-05-23T09:25:03.751Z,84.58
2023-05-23T09:26:03.681Z,84.88
2023-05-23T09:27:03.677Z,85.39
2023-05-23T09:28:03.689Z,85.49
2023-05-23T09:29:03.684Z,84.68
2023-05-23T09:30:03.643Z,84.95
2023-05-23T09:31:03.641Z,85.55
2023-05-23T09:32:03.804Z,84.13
2023-05-23T09:33:05.841Z,83.53
2023-05-23T09:34:03.604Z,84.03
2023-05-23T09:35:03.595Z,83.12
2023-05-23T09:36:03.571Z,82.51
2023-05-23T09:37:03.581Z,82.67
2023-05-23T09:38:03.557Z,82.00
2023-05-23T09:39:03.557Z,82.37
2023-05-23T09:40:03.584Z,81.25
2023-05-23T09:41:03.523Z,81.86
2023-05-23T09:42:03.506Z,80.33
2023-05-23T09:43:03.490Z,80.54
2023-05-23T09:44:03.489Z,80.64
2023-05-23T09:45:04.759Z,79.02
2023-05-23T09:46:03.467Z,79.42
2023-05-23T09:47:03.498Z,79.42
2023-05-23T09:48:03.488Z,79.42
2023-05-23T09:49:03.446Z,79.42
2023-05-23T09:50:03.422Z,80.03
2023-05-23T09:51:03.692Z,80.54
2023-05-23T09:52:03.435Z,80.64
2023-05-23T09:53:03.388Z,80.13
2023-05-23T09:54:03.373Z,80.74
2023-05-23T09:55:03.354Z,81.05
2023-05-23T09:56:03.384Z,79.25
2023-05-23T09:57:03.362Z,79.25
2023-05-23T09:58:03.364Z,80.24
2023-05-23T09:59:03.314Z,80.54
2023-05-23T10:00:03.308Z,78.24
2023-05-23T10:01:03.391Z,78.44
2023-05-23T10:02:03.282Z,78.95
2023-05-23T10:03:03.315Z,78.64
2023-05-23T10:04:03.293Z,78.64
2023-05-23T10:05:03.253Z,79.16
2023-05-23T10:06:03.231Z,79.25
2023-05-23T10:07:03.249Z,78.30
2023-05-23T10:08:03.229Z,77.94
2023-05-23T10:09:03.202Z,78.64
2023-05-23T10:10:03.191Z,78.14
2023-05-23T10:11:03.181Z,78.51
2023-05-23T10:12:03.166Z,78.81
2023-05-23T10:13:03.172Z,79.22
2023-05-23T10:14:03.154Z,79.22
2023-05-23T10:15:03.133Z,79.22
2023-05-23T10:16:03.166Z,78.81
2023-05-23T10:17:03.162Z,79.28
2023-05-23T10:18:03.178Z,79.32
2023-05-23T10:19:03.142Z,79.28
2023-05-23T10:20:03.087Z,79.12
2023-05-23T10:21:03.063Z,78.67
2023-05-23T10:22:03.061Z,78.00
2023-05-23T10:23:03.090Z,78.10
2023-05-23T10:24:03.052Z,78.57
2023-05-23T10:25:03.013Z,78.51
2023-05-23T10:26:03.006Z,78.67
2023-05-23T10:27:02.988Z,78.98
2023-05-23T10:28:04.496Z,78.78
2023-05-23T10:29:02.981Z,78.98
2023-05-23T10:30:02.970Z,78.23
2023-05-23T10:31:03.029Z,78.40
2023-05-23T10:32:02.944Z,77.99
2023-05-23T10:33:03.086Z,76.20
2023-05-23T10:34:02.932Z,76.09
2023-05-23T10:35:02.920Z,75.08
2023-05-23T10:36:02.947Z,74.57
2023-05-23T10:37:02.877Z,75.28
2023-05-23T10:38:02.875Z,75.52
2023-05-23T10:39:02.865Z,75.11
2023-05-23T10:40:02.846Z,74.77
2023-05-23T10:41:02.846Z,74.87
2023-05-23T10:42:02.825Z,73.63
2023-05-23T10:43:02.808Z,73.76
2023-05-23T10:44:02.816Z,73.43
2023-05-23T10:45:02.780Z,73.02
2023-05-23T10:46:02.920Z,72.31
2023-05-23T10:47:02.969Z,71.70
2023-05-23T10:48:02.791Z,70.73
2023-05-23T10:49:02.774Z,70.25
2023-05-23T10:50:02.732Z,71.26
2023-05-23T10:51:02.716Z,70.96
2023-05-23T10:52:02.715Z,70.96
2023-05-23T10:53:02.689Z,71.80
2023-05-23T10:54:02.686Z,72.41
2023-05-23T10:55:02.715Z,72.01
2023-05-23T10:56:02.663Z,71.91
2023-05-23T10:57:02.665Z,71.91
2023-05-23T10:58:02.640Z,72.52
2023-05-23T10:59:02.628Z,72.41
2023-05-23T11:00:02.615Z,73.39
2023-05-23T11:01:02.650Z,72.14
2023-05-23T11:02:02.643Z,71.70
2023-05-23T11:03:02.647Z,69.82
2023-05-23T11:04:02.665Z,70.32
2023-05-23T11:05:02.660Z,70.79
2023-05-23T11:06:02.555Z,70.96
2023-05-23T11:07:02.548Z,68.74
2023-05-23T11:08:02.529Z,67.23
2023-05-23T11:09:03.299Z,66.65
2023-05-23T11:10:02.503Z,68.17
2023-05-23T11:11:02.484Z,70.19
2023-05-23T11:12:02.517Z,70.19
2023-05-23T11:13:02.526Z,70.29
2023-05-23T11:14:02.479Z,69.45
2023-05-23T11:15:02.461Z,67.93
2023-05-23T11:16:02.479Z,66.52
2023-05-23T11:17:02.448Z,66.96
2023-05-23T11:18:02.478Z,66.55
2023-05-23T11:19:02.417Z,66.08
2023-05-23T11:20:02.390Z,66.15
2023-05-23T11:21:02.413Z,65.88
2023-05-23T11:22:02.384Z,67.90
2023-05-23T11:23:02.377Z,67.02
2023-05-23T11:24:02.363Z,68.33
2023-05-23T11:25:02.327Z,69.31
2023-05-23T11:26:02.325Z,70.12
2023-05-23T11:27:02.323Z,69.11
2023-05-23T11:28:02.293Z,68.40
2023-05-23T11:29:02.288Z,68.20
2023-05-23T11:30:02.298Z,67.09
2023-05-23T11:31:02.288Z,68.13
2023-05-23T11:32:02.282Z,66.31
2023-05-23T11:33:02.355Z,66.55
2023-05-23T11:34:02.234Z,67.66
2023-05-23T11:35:02.229Z,67.35
2023-05-23T11:36:02.201Z,67.76
2023-05-23T11:37:02.211Z,68.97
2023-05-23T11:38:02.213Z,68.37
2023-05-23T11:39:02.184Z,68.57
2023-05-23T11:40:02.163Z,69.07
2023-05-23T11:41:02.147Z,70.39
2023-05-23T11:42:02.150Z,69.14
2023-05-23T11:43:02.156Z,66.92
2023-05-23T11:44:02.135Z,66.21
2023-05-23T11:45:02.099Z,68.51
2023-05-23T11:46:02.126Z,67.76
2023-05-23T11:47:02.110Z,68.17
2023-05-23T11:48:02.172Z,67.13
2023-05-23T11:49:02.091Z,66.42
2023-05-23T11:50:02.080Z,67.50
2023-05-23T11:51:02.045Z,68.41
2023-05-23T11:52:02.034Z,66.49
2023-05-23T11:53:02.046Z,65.18
2023-05-23T11:54:02.045Z,64.07
2023-05-23T11:55:03.950Z,64.30
2023-05-23T11:56:01.999Z,66.62
2023-05-23T11:57:01.983Z,66.72
2023-05-23T11:58:01.966Z,64.70
2023-05-23T11:59:01.941Z,64.43
2023-05-23T12:00:01.937Z,65.44
2023-05-23T12:01:01.932Z,66.05
2023-05-23T12:02:01.929Z,65.75
2023-05-23T12:03:01.938Z,66.32
2023-05-23T12:04:01.969Z,66.59
2023-05-23T12:05:01.933Z,64.87
2023-05-23T12:06:01.928Z,64.78
2023-05-23T12:07:01.906Z,64.37
2023-05-23T12:08:01.843Z,64.04
2023-05-23T12:09:01.849Z,66.36
2023-05-23T12:10:01.816Z,66.46
2023-05-23T12:11:01.810Z,64.44
2023-05-23T12:12:01.803Z,65.05
2023-05-23T12:13:01.798Z,62.12
2023-05-23T12:14:01.780Z,63.87
2023-05-23T12:15:01.765Z,63.73
2023-05-23T12:16:01.901Z,64.34
2023-05-23T12:17:01.749Z,60.91
2023-05-23T12:18:02.266Z,62.25
2023-05-23T12:19:01.752Z,66.46
2023-05-23T12:20:01.703Z,66.76
2023-05-23T12:21:01.691Z,66.46
2023-05-23T12:22:01.736Z,65.35
2023-05-23T12:23:01.670Z,62.93
2023-05-23T12:24:01.663Z,62.96
2023-05-23T12:25:01.664Z,64.47
2023-05-23T12:26:01.672Z,66.69
2023-05-23T12:27:01.645Z,64.37
2023-05-23T12:28:01.622Z,64.47
2023-05-23T12:29:01.614Z,65.08
2023-05-23T12:30:01.637Z,64.67
2023-05-23T12:31:01.693Z,64.37
2023-05-23T12:32:01.626Z,64.37
2023-05-23T12:33:01.619Z,64.87
2023-05-23T12:34:01.565Z,62.85
2023-05-23T12:35:01.560Z,64.44
2023-05-23T12:36:01.551Z,64.44
2023-05-23T12:37:17.948Z,62.73
2023-05-23T12:38:02.520Z,62.85
2023-05-23T12:39:01.504Z,62.85
2023-05-23T12:40:01.521Z,63.67
2023-05-23T12:41:01.493Z,63.96
2023-05-23T12:42:01.468Z,64.67
2023-05-23T12:43:01.464Z,61.37
2023-05-23T12:44:01.452Z,62.18
2023-05-23T12:45:01.439Z,62.79
2023-05-23T12:46:01.417Z,63.02
2023-05-23T12:47:01.552Z,61.91
2023-05-23T12:48:01.462Z,63.02
2023-05-23T12:49:01.378Z,62.71
2023-05-23T12:50:01.366Z,64.73
2023-05-23T12:51:01.360Z,66.75
2023-05-23T12:52:01.350Z,64.90
2023-05-23T12:53:01.335Z,62.18